sensor_id;sensor_type;location;lat;lon;timestamp;pressure;altitude;pressure_sealevel;temperature;humidity
59367;BME280;45163;47.690;11.770;2023-02-21T00:02:33;93788.34;;;2.57;100.00
59367;BME280;45163;47.690;11.770;2023-02-21T00:05:17;93788.25;;;2.46;100.00
59367;BME280;45163;47.690;11.770;2023-02-21T00:08:02;93800.13;;;2.38;100.00
59367;BME280;45163;47.690;11.770;2023-02-21T00:10:46;93791.56;;;2.29;100.00
59367;BME280;45163;47.690;11.770;2023-02-21T00:13:35;93788.13;;;2.32;100.00
59367;BME280;45163;47.690;11.770;2023-02-21T00:16:19;93786.13;;;2.25;100.00
59367;BME280;45163;47.690;11.770;2023-02-21T00:19:04;93789.91;;;2.17;100.00
59367;BME280;45163;47.690;11.770;2023-02-21T00:21:48;93791.47;;;2.18;100.00
59367;BME280;45163;47.690;11.770;2023-02-21T00:24:33;93789.28;;;2.31;100.00
59367;BME280;45163;47.690;11.770;2023-02-21T00:27:17;93795.81;;;2.30;100.00
59367;BME280;45163;47.690;11.770;2023-02-21T00:30:03;93793.63;;;2.43;100.00
59367;BME280;45163;47.690;11.770;2023-02-21T00:32:48;93786.88;;;2.22;100.00
59367;BME280;45163;47.690;11.770;2023-02-21T00:35:32;93785.38;;;1.91;100.00
59367;BME280;45163;47.690;11.770;2023-02-21T00:38:17;93796.63;;;1.67;100.00
59367;BME280;45163;47.690;11.770;2023-02-21T00:41:01;93791.91;;;1.57;100.00
59367;BME280;45163;47.690;11.770;2023-02-21T00:43:46;93795.72;;;1.56;100.00
59367;BME280;45163;47.690;11.770;2023-02-21T00:46:30;93786.84;;;1.52;100.00
59367;BME280;45163;47.690;11.770;2023-02-21T00:49:15;93798.31;;;1.48;100.00
59367;BME280;45163;47.690;11.770;2023-02-21T00:51:59;93791.75;;;1.46;100.00
59367;BME280;45163;47.690;11.770;2023-02-21T00:54:43;93788.66;;;1.44;100.00
59367;BME280;45163;47.690;11.770;2023-02-21T00:57:28;93781.53;;;1.29;100.00
59367;BME280;45163;47.690;11.770;2023-02-21T01:00:22;93780.66;;;1.21;100.00
59367;BME280;45163;47.690;11.770;2023-02-21T01:03:08;93781.47;;;1.21;100.00
59367;BME280;45163;47.690;11.770;2023-02-21T01:05:53;93784.03;;;1.14;100.00
59367;BME280;45163;47.690;11.770;2023-02-21T01:08:43;93777.41;;;1.08;100.00
59367;BME280;45163;47.690;11.770;2023-02-21T01:11:28;93767.78;;;1.07;100.00
59367;BME280;45163;47.690;11.770;2023-02-21T01:14:14;93777.66;;;0.99;100.00
59367;BME280;45163;47.690;11.770;2023-02-21T01:16:58;93768.25;;;0.86;100.00
59367;BME280;45163;47.690;11.770;2023-02-21T01:19:43;93773.25;;;0.84;100.00
59367;BME280;45163;47.690;11.770;2023-02-21T01:22:28;93754.13;;;0.89;100.00
59367;BME280;45163;47.690;11.770;2023-02-21T01:25:14;93758.59;;;1.08;100.00
59367;BME280;45163;47.690;11.770;2023-02-21T01:27:58;93749.44;;;1.13;100.00
59367;BME280;45163;47.690;11.770;2023-02-21T01:30:43;93755.41;;;1.26;100.00
59367;BME280;45163;47.690;11.770;2023-02-21T01:33:27;93751.38;;;1.42;100.00
59367;BME280;45163;47.690;11.770;2023-02-21T01:36:12;93739.19;;;1.52;100.00
59367;BME280;45163;47.690;11.770;2023-02-21T01:38:56;93745.53;;;1.37;100.00
59367;BME280;45163;47.690;11.770;2023-02-21T01:41:41;93739.34;;;1.33;100.00
59367;BME280;45163;47.690;11.770;2023-02-21T01:44:38;93740.25;;;1.14;100.00
59367;BME280;45163;47.690;11.770;2023-02-21T01:47:23;93744.31;;;1.01;100.00
59367;BME280;45163;47.690;11.770;2023-02-21T01:50:29;93735.31;;;0.89;100.00
59367;BME280;45163;47.690;11.770;2023-02-21T01:53:21;93726.69;;;0.77;100.00
59367;BME280;45163;47.690;11.770;2023-02-21T01:56:08;93725.13;;;0.76;100.00
59367;BME280;45163;47.690;11.770;2023-02-21T01:58:55;93736.53;;;0.69;100.00
59367;BME280;45163;47.690;11.770;2023-02-21T02:01:54;93724.91;;;0.61;100.00
59367;BME280;45163;47.690;11.770;2023-02-21T02:04:41;93732.13;;;0.57;100.00
59367;BME280;45163;47.690;11.770;2023-02-21T02:07:27;93718.38;;;0.59;100.00
59367;BME280;45163;47.690;11.770;2023-02-21T02:10:12;93729.00;;;0.78;100.00
59367;BME280;45163;47.690;11.770;2023-02-21T02:21:16;93715.84;;;1.26;100.00
59367;BME280;45163;47.690;11.770;2023-02-21T02:35:42;93708.09;;;0.41;100.00
59367;BME280;45163;47.690;11.770;2023-02-21T02:38:35;93708.66;;;0.28;100.00
59367;BME280;45163;47.690;11.770;2023-02-21T02:41:09;93706.75;;;0.28;100.00
59367;BME280;45163;47.690;11.770;2023-02-21T02:43:44;93720.47;;;0.23;100.00
59367;BME280;45163;47.690;11.770;2023-02-21T02:46:19;93717.91;;;0.07;100.00
59367;BME280;45163;47.690;11.770;2023-02-21T02:49:04;93713.22;;;0.01;100.00
59367;BME280;45163;47.690;11.770;2023-02-21T02:51:33;93712.84;;;0.02;100.00
59367;BME280;45163;47.690;11.770;2023-02-21T02:53:59;93710.16;;;0.02;100.00
59367;BME280;45163;47.690;11.770;2023-02-21T02:56:25;93704.41;;;0.04;100.00
59367;BME280;45163;47.690;11.770;2023-02-21T03:14:58;93689.34;;;0.18;100.00
59367;BME280;45163;47.690;11.770;2023-02-21T03:17:27;93692.41;;;0.17;100.00
59367;BME280;45163;47.690;11.770;2023-02-21T03:19:56;93689.28;;;0.15;100.00
59367;BME280;45163;47.690;11.770;2023-02-21T03:22:26;93694.34;;;0.20;100.00
59367;BME280;45163;47.690;11.770;2023-02-21T03:24:57;93702.34;;;0.16;100.00
59367;BME280;45163;47.690;11.770;2023-02-21T03:27:25;93694.53;;;0.08;100.00
59367;BME280;45163;47.690;11.770;2023-02-21T03:29:53;93694.34;;;-0.03;100.00
59367;BME280;45163;47.690;11.770;2023-02-21T03:32:27;93696.91;;;-0.10;100.00
59367;BME280;45163;47.690;11.770;2023-02-21T03:34:55;93694.44;;;0.01;100.00
59367;BME280;45163;47.690;11.770;2023-02-21T03:37:30;93694.84;;;0.52;100.00
59367;BME280;45163;47.690;11.770;2023-02-21T03:39:56;93696.16;;;0.92;100.00
59367;BME280;45163;47.690;11.770;2023-02-21T03:42:23;93690.66;;;0.81;100.00
59367;BME280;45163;47.690;11.770;2023-02-21T03:44:49;93686.47;;;0.57;100.00
59367;BME280;45163;47.690;11.770;2023-02-21T03:47:15;93680.06;;;0.39;100.00
59367;BME280;45163;47.690;11.770;2023-02-21T03:49:40;93685.69;;;0.07;100.00
59367;BME280;45163;47.690;11.770;2023-02-21T03:52:09;93687.09;;;-0.03;100.00
59367;BME280;45163;47.690;11.770;2023-02-21T03:54:38;93680.97;;;-0.22;100.00
59367;BME280;45163;47.690;11.770;2023-02-21T03:57:04;93686.22;;;-0.30;100.00
59367;BME280;45163;47.690;11.770;2023-02-21T03:59:30;93691.47;;;-0.37;100.00
59367;BME280;45163;47.690;11.770;2023-02-21T04:01:56;93688.44;;;-0.35;100.00
59367;BME280;45163;47.690;11.770;2023-02-21T04:04:22;93687.50;;;-0.43;100.00
59367;BME280;45163;47.690;11.770;2023-02-21T04:06:48;93679.91;;;-0.41;100.00
59367;BME280;45163;47.690;11.770;2023-02-21T04:09:14;93683.59;;;-0.49;100.00
59367;BME280;45163;47.690;11.770;2023-02-21T04:11:44;93682.66;;;-0.57;100.00
59367;BME280;45163;47.690;11.770;2023-02-21T04:14:10;93685.28;;;-0.60;100.00
59367;BME280;45163;47.690;11.770;2023-02-21T04:16:36;93686.41;;;-0.61;100.00
59367;BME280;45163;47.690;11.770;2023-02-21T04:19:02;93688.63;;;-0.67;100.00
59367;BME280;45163;47.690;11.770;2023-02-21T04:21:28;93701.19;;;-0.71;100.00
59367;BME280;45163;47.690;11.770;2023-02-21T04:23:55;93699.97;;;-0.73;100.00
59367;BME280;45163;47.690;11.770;2023-02-21T04:26:21;93688.03;;;-0.76;100.00
59367;BME280;45163;47.690;11.770;2023-02-21T04:28:52;93704.47;;;-0.78;100.00
59367;BME280;45163;47.690;11.770;2023-02-21T04:31:18;93693.97;;;-0.67;100.00
59367;BME280;45163;47.690;11.770;2023-02-21T04:33:44;93698.75;;;-0.57;100.00
59367;BME280;45163;47.690;11.770;2023-02-21T04:36:10;93687.56;;;-0.62;100.00
59367;BME280;45163;47.690;11.770;2023-02-21T04:38:36;93693.31;;;-0.60;100.00
59367;BME280;45163;47.690;11.770;2023-02-21T04:41:05;93694.72;;;-0.47;100.00
59367;BME280;45163;47.690;11.770;2023-02-21T04:43:31;93696.34;;;-0.42;100.00
59367;BME280;45163;47.690;11.770;2023-02-21T04:45:57;93689.78;;;-0.45;100.00
59367;BME280;45163;47.690;11.770;2023-02-21T04:48:24;93689.13;;;-0.38;100.00
59367;BME280;45163;47.690;11.770;2023-02-21T04:50:50;93696.75;;;-0.40;100.00
59367;BME280;45163;47.690;11.770;2023-02-21T04:53:16;93694.78;;;-0.43;100.00
59367;BME280;45163;47.690;11.770;2023-02-21T04:55:42;93688.50;;;-0.51;100.00
59367;BME280;45163;47.690;11.770;2023-02-21T04:58:08;93693.88;;;-0.51;100.00
59367;BME280;45163;47.690;11.770;2023-02-21T05:00:34;93698.38;;;-0.55;100.00
59367;BME280;45163;47.690;11.770;2023-02-21T05:03:00;93697.06;;;-0.65;100.00
59367;BME280;45163;47.690;11.770;2023-02-21T05:05:26;93693.31;;;-0.60;100.00
59367;BME280;45163;47.690;11.770;2023-02-21T05:07:52;93689.78;;;-0.45;100.00
59367;BME280;45163;47.690;11.770;2023-02-21T05:10:18;93692.94;;;-0.39;100.00
59367;BME280;45163;47.690;11.770;2023-02-21T05:12:44;93697.50;;;-0.20;100.00
59367;BME280;45163;47.690;11.770;2023-02-21T05:15:11;93702.34;;;-0.07;100.00
59367;BME280;45163;47.690;11.770;2023-02-21T05:17:38;93698.88;;;-0.07;100.00
59367;BME280;45163;47.690;11.770;2023-02-21T05:20:05;93694.34;;;-0.03;100.00
59367;BME280;45163;47.690;11.770;2023-02-21T05:22:40;93693.03;;;-0.13;100.00
59367;BME280;45163;47.690;11.770;2023-02-21T05:25:14;93692.78;;;-0.27;100.00
59367;BME280;45163;47.690;11.770;2023-02-21T05:27:40;93693.38;;;-0.37;100.00
59367;BME280;45163;47.690;11.770;2023-02-21T05:30:06;93699.66;;;-0.49;100.00
59367;BME280;45163;47.690;11.770;2023-02-21T05:32:33;93694.59;;;-0.54;100.00
59367;BME280;45163;47.690;11.770;2023-02-21T05:34:59;93697.91;;;-0.61;100.00
59367;BME280;45163;47.690;11.770;2023-02-21T05:37:25;93703.84;;;-0.71;100.00
59367;BME280;45163;47.690;11.770;2023-02-21T05:39:51;93699.75;;;-0.84;100.00
59367;BME280;45163;47.690;11.770;2023-02-21T05:42:17;93699.53;;;-0.95;100.00
59367;BME280;45163;47.690;11.770;2023-02-21T05:44:45;93704.38;;;-1.01;100.00
59367;BME280;45163;47.690;11.770;2023-02-21T05:47:12;93701.84;;;-1.13;100.00
59367;BME280;45163;47.690;11.770;2023-02-21T05:49:39;93698.16;;;-1.24;100.00
59367;BME280;45163;47.690;11.770;2023-02-21T05:52:05;93692.13;;;-1.21;100.00
59367;BME280;45163;47.690;11.770;2023-02-21T05:54:31;93691.91;;;-1.12;100.00
59367;BME280;45163;47.690;11.770;2023-02-21T05:56:57;93687.81;;;-1.06;100.00
59367;BME280;45163;47.690;11.770;2023-02-21T05:59:24;93696.72;;;-1.02;100.00
59367;BME280;45163;47.690;11.770;2023-02-21T06:01:50;93691.84;;;-0.96;100.00
59367;BME280;45163;47.690;11.770;2023-02-21T06:04:17;93691.69;;;-0.84;100.00
59367;BME280;45163;47.690;11.770;2023-02-21T06:06:44;93693.97;;;-0.86;100.00
59367;BME280;45163;47.690;11.770;2023-02-21T06:09:10;93689.22;;;-0.93;100.00
59367;BME280;45163;47.690;11.770;2023-02-21T06:11:38;93693.41;;;-0.95;100.00
59367;BME280;45163;47.690;11.770;2023-02-21T06:14:13;93699.38;;;-1.02;100.00
59367;BME280;45163;47.690;11.770;2023-02-21T06:16:40;93693.88;;;-1.09;100.00
59367;BME280;45163;47.690;11.770;2023-02-21T06:19:08;93696.13;;;-1.11;100.00
59367;BME280;45163;47.690;11.770;2023-02-21T06:21:34;93702.97;;;-1.14;100.00
59367;BME280;45163;47.690;11.770;2023-02-21T06:24:01;93690.00;;;-1.12;100.00
59367;BME280;45163;47.690;11.770;2023-02-21T06:26:27;93698.19;;;-1.05;100.00
59367;BME280;45163;47.690;11.770;2023-02-21T06:28:53;93694.38;;;-1.04;100.00
59367;BME280;45163;47.690;11.770;2023-02-21T06:31:20;93694.94;;;-1.14;100.00
59367;BME280;45163;47.690;11.770;2023-02-21T06:33:47;93695.69;;;-1.13;100.00
59367;BME280;45163;47.690;11.770;2023-02-21T06:36:16;93696.06;;;-1.15;100.00
59367;BME280;45163;47.690;11.770;2023-02-21T06:38:45;93687.34;;;-1.12;100.00
59367;BME280;45163;47.690;11.770;2023-02-21T06:41:14;93691.47;;;-1.14;100.00
59367;BME280;45163;47.690;11.770;2023-02-21T06:43:40;93696.56;;;-1.09;100.00
59367;BME280;45163;47.690;11.770;2023-02-21T06:46:06;93695.44;;;-1.08;100.00
59367;BME280;45163;47.690;11.770;2023-02-21T06:48:32;93699.50;;;-1.14;100.00
59367;BME280;45163;47.690;11.770;2023-02-21T06:50:58;93701.00;;;-1.17;100.00
59367;BME280;45163;47.690;11.770;2023-02-21T06:53:24;93701.25;;;-1.22;100.00
59367;BME280;45163;47.690;11.770;2023-02-21T06:55:51;93694.06;;;-1.18;100.00
59367;BME280;45163;47.690;11.770;2023-02-21T06:58:17;93699.59;;;-1.11;100.00
59367;BME280;45163;47.690;11.770;2023-02-21T07:00:43;93694.47;;;-1.00;100.00
59367;BME280;45163;47.690;11.770;2023-02-21T07:03:09;93703.53;;;-1.05;100.00
59367;BME280;45163;47.690;11.770;2023-02-21T07:05:35;93707.06;;;-1.01;100.00
59367;BME280;45163;47.690;11.770;2023-02-21T07:08:03;93707.38;;;-0.67;100.00
59367;BME280;45163;47.690;11.770;2023-02-21T07:10:30;93703.19;;;-0.03;100.00
59367;BME280;45163;47.690;11.770;2023-02-21T07:12:56;93706.31;;;0.49;100.00
59367;BME280;45163;47.690;11.770;2023-02-21T07:15:22;93705.53;;;1.02;100.00
59367;BME280;45163;47.690;11.770;2023-02-21T07:17:48;93706.53;;;1.54;100.00
59367;BME280;45163;47.690;11.770;2023-02-21T07:20:14;93690.47;;;1.98;100.00
59367;BME280;45163;47.690;11.770;2023-02-21T07:22:40;93683.88;;;2.91;100.00
59367;BME280;45163;47.690;11.770;2023-02-21T07:25:06;93676.31;;;3.18;100.00
59367;BME280;45163;47.690;11.770;2023-02-21T07:27:32;93680.44;;;3.85;100.00
59367;BME280;45163;47.690;11.770;2023-02-21T07:29:58;93672.75;;;4.55;100.00
59367;BME280;45163;47.690;11.770;2023-02-21T07:32:24;93671.97;;;4.97;100.00
59367;BME280;45163;47.690;11.770;2023-02-21T07:34:50;93665.75;;;5.08;100.00
59367;BME280;45163;47.690;11.770;2023-02-21T07:37:15;93664.16;;;5.17;100.00
59367;BME280;45163;47.690;11.770;2023-02-21T07:39:41;93657.88;;;5.53;100.00
59367;BME280;45163;47.690;11.770;2023-02-21T07:42:07;93655.38;;;5.87;100.00
59367;BME280;45163;47.690;11.770;2023-02-21T07:44:33;93663.97;;;5.64;100.00
59367;BME280;45163;47.690;11.770;2023-02-21T07:46:59;93652.38;;;5.67;100.00
59367;BME280;45163;47.690;11.770;2023-02-21T07:49:25;93655.06;;;5.70;100.00
59367;BME280;45163;47.690;11.770;2023-02-21T07:51:51;93656.88;;;5.91;100.00
59367;BME280;45163;47.690;11.770;2023-02-21T07:54:17;93653.88;;;5.79;100.00
59367;BME280;45163;47.690;11.770;2023-02-21T07:56:48;93649.31;;;6.31;100.00
59367;BME280;45163;47.690;11.770;2023-02-21T07:59:14;93640.19;;;6.56;100.00
59367;BME280;45163;47.690;11.770;2023-02-21T08:01:41;93653.75;;;6.56;100.00
59367;BME280;45163;47.690;11.770;2023-02-21T08:04:07;93643.06;;;7.20;100.00
59367;BME280;45163;47.690;11.770;2023-02-21T08:06:34;93639.81;;;7.67;100.00
59367;BME280;45163;47.690;11.770;2023-02-21T08:09:00;93642.25;;;7.88;100.00
59367;BME280;45163;47.690;11.770;2023-02-21T08:11:26;93639.63;;;7.81;100.00
59367;BME280;45163;47.690;11.770;2023-02-21T08:13:52;93647.88;;;7.74;100.00
59367;BME280;45163;47.690;11.770;2023-02-21T08:16:18;93638.69;;;7.30;100.00
59367;BME280;45163;47.690;11.770;2023-02-21T08:18:46;93638.13;;;7.46;100.00
59367;BME280;45163;47.690;11.770;2023-02-21T08:21:12;93638.81;;;7.84;100.00
59367;BME280;45163;47.690;11.770;2023-02-21T08:23:38;93627.69;;;8.56;100.00
59367;BME280;45163;47.690;11.770;2023-02-21T08:26:04;93643.56;;;9.28;100.00
59367;BME280;45163;47.690;11.770;2023-02-21T08:28:30;93637.97;;;9.75;100.00
59367;BME280;45163;47.690;11.770;2023-02-21T08:30:56;93635.44;;;9.84;100.00
59367;BME280;45163;47.690;11.770;2023-02-21T08:33:22;93643.66;;;10.01;100.00
59367;BME280;45163;47.690;11.770;2023-02-21T08:35:49;93639.00;;;10.37;100.00
59367;BME280;45163;47.690;11.770;2023-02-21T08:38:17;93642.13;;;10.00;100.00
59367;BME280;45163;47.690;11.770;2023-02-21T08:40:43;93636.56;;;9.87;100.00
59367;BME280;45163;47.690;11.770;2023-02-21T08:43:10;93634.41;;;9.78;100.00
59367;BME280;45163;47.690;11.770;2023-02-21T08:45:36;93632.44;;;9.19;100.00
59367;BME280;45163;47.690;11.770;2023-02-21T08:48:02;93645.19;;;9.45;100.00
59367;BME280;45163;47.690;11.770;2023-02-21T08:50:29;93634.91;;;9.33;100.00
59367;BME280;45163;47.690;11.770;2023-02-21T08:52:55;93639.00;;;10.37;100.00
59367;BME280;45163;47.690;11.770;2023-02-21T08:55:22;93625.75;;;11.01;100.00
59367;BME280;45163;47.690;11.770;2023-02-21T08:57:50;93633.25;;;11.13;100.00
59367;BME280;45163;47.690;11.770;2023-02-21T09:00:17;93635.41;;;10.57;100.00
59367;BME280;45163;47.690;11.770;2023-02-21T09:02:44;93632.28;;;10.58;100.00
59367;BME280;45163;47.690;11.770;2023-02-21T09:05:14;93623.13;;;11.27;100.00
59367;BME280;45163;47.690;11.770;2023-02-21T09:07:41;93631.13;;;11.92;100.00
59367;BME280;45163;47.690;11.770;2023-02-21T09:10:08;93627.34;;;12.40;100.00
59367;BME280;45163;47.690;11.770;2023-02-21T09:12:36;93629.16;;;12.94;97.41
59367;BME280;45163;47.690;11.770;2023-02-21T09:15:03;93612.44;;;12.67;91.41
59367;BME280;45163;47.690;11.770;2023-02-21T09:17:29;93621.34;;;13.06;93.43
59367;BME280;45163;47.690;11.770;2023-02-21T09:20:07;93616.69;;;13.63;88.44
59367;BME280;45163;47.690;11.770;2023-02-21T09:22:33;93620.28;;;14.04;78.84
59367;BME280;45163;47.690;11.770;2023-02-21T09:25:00;93629.44;;;14.01;77.18
59367;BME280;45163;47.690;11.770;2023-02-21T09:27:26;93616.41;;;14.23;74.72
59367;BME280;45163;47.690;11.770;2023-02-21T09:30:09;93618.84;;;15.02;71.36
59367;BME280;45163;47.690;11.770;2023-02-21T09:32:36;93607.28;;;15.62;66.29
59367;BME280;45163;47.690;11.770;2023-02-21T09:35:03;93618.84;;;16.12;64.22
59367;BME280;45163;47.690;11.770;2023-02-21T09:37:30;93606.75;;;16.28;55.83
59367;BME280;45163;47.690;11.770;2023-02-21T09:39:58;93613.19;;;17.00;52.74
59367;BME280;45163;47.690;11.770;2023-02-21T09:42:29;93603.75;;;17.55;53.14
59367;BME280;45163;47.690;11.770;2023-02-21T09:44:56;93603.03;;;18.23;50.99
59367;BME280;45163;47.690;11.770;2023-02-21T09:47:28;93592.75;;;19.64;49.35
59367;BME280;45163;47.690;11.770;2023-02-21T09:50:11;93591.53;;;19.91;41.01
59367;BME280;45163;47.690;11.770;2023-02-21T09:52:39;93595.97;;;20.61;36.96
59367;BME280;45163;47.690;11.770;2023-02-21T09:57:55;93592.84;;;21.82;35.46
59367;BME280;45163;47.690;11.770;2023-02-21T10:00:26;93588.72;;;21.60;31.48
59367;BME280;45163;47.690;11.770;2023-02-21T10:08:08;93585.16;;;22.98;29.84
59367;BME280;45163;47.690;11.770;2023-02-21T10:10:49;93582.72;;;23.58;28.60
59367;BME280;45163;47.690;11.770;2023-02-21T10:13:40;93577.34;;;24.24;27.14
59367;BME280;45163;47.690;11.770;2023-02-21T10:16:25;93586.38;;;24.00;27.95
59367;BME280;45163;47.690;11.770;2023-02-21T10:21:32;93581.56;;;23.95;29.11
59367;BME280;45163;47.690;11.770;2023-02-21T10:24:02;93588.00;;;23.73;29.04
59367;BME280;45163;47.690;11.770;2023-02-21T10:26:34;93583.31;;;24.04;27.65
59367;BME280;45163;47.690;11.770;2023-02-21T10:29:06;93580.13;;;24.96;26.49
59367;BME280;45163;47.690;11.770;2023-02-21T10:31:43;93578.56;;;23.88;25.10
59367;BME280;45163;47.690;11.770;2023-02-21T10:34:31;93582.69;;;24.22;25.94
59367;BME280;45163;47.690;11.770;2023-02-21T10:37:03;93574.78;;;24.26;25.93
59367;BME280;45163;47.690;11.770;2023-02-21T10:39:39;93580.84;;;23.14;22.81
59367;BME280;45163;47.690;11.770;2023-02-21T10:42:13;93568.88;;;24.41;24.88
59367;BME280;45163;47.690;11.770;2023-02-21T10:44:43;93571.56;;;25.62;22.12
59367;BME280;45163;47.690;11.770;2023-02-21T10:47:18;93566.84;;;25.75;19.96
59367;BME280;45163;47.690;11.770;2023-02-21T10:49:59;93564.75;;;25.38;18.47
59367;BME280;45163;47.690;11.770;2023-02-21T10:52:26;93567.25;;;26.23;16.75
59367;BME280;45163;47.690;11.770;2023-02-21T10:55:17;93564.25;;;25.58;19.48
59367;BME280;45163;47.690;11.770;2023-02-21T10:57:45;93564.75;;;26.00;18.73
59367;BME280;45163;47.690;11.770;2023-02-21T11:00:48;93560.59;;;26.07;16.60
59367;BME280;45163;47.690;11.770;2023-02-21T11:05:54;93554.38;;;26.97;15.13
59367;BME280;45163;47.690;11.770;2023-02-21T11:08:46;93551.06;;;26.16;18.99
59367;BME280;45163;47.690;11.770;2023-02-21T11:11:12;93542.84;;;25.86;19.03
59367;BME280;45163;47.690;11.770;2023-02-21T11:13:38;93542.56;;;25.65;19.90
59367;BME280;45163;47.690;11.770;2023-02-21T11:16:18;93536.25;;;25.83;20.72
59367;BME280;45163;47.690;11.770;2023-02-21T11:18:44;93529.81;;;24.41;21.35
59367;BME280;45163;47.690;11.770;2023-02-21T11:21:13;93535.31;;;24.52;22.02
59367;BME280;45163;47.690;11.770;2023-02-21T11:23:58;93536.69;;;23.99;22.42
59367;BME280;45163;47.690;11.770;2023-02-21T11:26:35;93530.59;;;24.96;21.05
59367;BME280;45163;47.690;11.770;2023-02-21T11:29:10;93527.44;;;24.81;21.23
59367;BME280;45163;47.690;11.770;2023-02-21T11:31:38;93527.69;;;24.53;21.70
59367;BME280;45163;47.690;11.770;2023-02-21T11:34:06;93523.78;;;23.96;22.13
59367;BME280;45163;47.690;11.770;2023-02-21T11:36:44;93521.78;;;23.91;21.86
59367;BME280;45163;47.690;11.770;2023-02-21T11:39:22;93507.56;;;23.94;23.18
59367;BME280;45163;47.690;11.770;2023-02-21T11:41:57;93508.41;;;24.19;21.58
59367;BME280;45163;47.690;11.770;2023-02-21T11:44:27;93510.91;;;23.87;22.49
59367;BME280;45163;47.690;11.770;2023-02-21T11:47:24;93503.69;;;24.03;21.33
59367;BME280;45163;47.690;11.770;2023-02-21T11:52:31;93504.66;;;23.75;20.52
59367;BME280;45163;47.690;11.770;2023-02-21T11:54:59;93501.19;;;24.65;21.41
59367;BME280;45163;47.690;11.770;2023-02-21T12:30:03;93445.22;;;26.78;17.55
59367;BME280;45163;47.690;11.770;2023-02-21T12:36:13;93440.28;;;26.07;18.45
59367;BME280;45163;47.690;11.770;2023-02-21T12:44:14;93422.47;;;26.23;17.94
59367;BME280;45163;47.690;11.770;2023-02-21T12:51:56;93421.38;;;26.58;17.62
59367;BME280;45163;47.690;11.770;2023-02-21T12:54:48;93411.44;;;25.99;17.88
59367;BME280;45163;47.690;11.770;2023-02-21T12:57:33;93409.72;;;25.58;18.73
59367;BME280;45163;47.690;11.770;2023-02-21T13:02:42;93411.41;;;26.90;17.94
59367;BME280;45163;47.690;11.770;2023-02-21T13:05:15;93400.94;;;26.77;18.37
59367;BME280;45163;47.690;11.770;2023-02-21T13:08:04;93401.78;;;26.58;18.28
59367;BME280;45163;47.690;11.770;2023-02-21T13:10:35;93397.69;;;26.01;19.03
59367;BME280;45163;47.690;11.770;2023-02-21T13:13:09;93393.81;;;25.34;20.23
59367;BME280;45163;47.690;11.770;2023-02-21T13:15:36;93386.34;;;25.74;19.28
59367;BME280;45163;47.690;11.770;2023-02-21T13:20:38;93387.16;;;25.18;19.59
59367;BME280;45163;47.690;11.770;2023-02-21T13:26:47;93378.88;;;25.13;19.24
59367;BME280;45163;47.690;11.770;2023-02-21T13:29:15;93373.56;;;25.09;20.33
59367;BME280;45163;47.690;11.770;2023-02-21T13:31:43;93367.03;;;25.57;19.78
59367;BME280;45163;47.690;11.770;2023-02-21T13:34:11;93361.56;;;25.33;20.09
59367;BME280;45163;47.690;11.770;2023-02-21T13:36:45;93359.19;;;24.80;20.77
59367;BME280;45163;47.690;11.770;2023-02-21T13:39:16;93364.59;;;24.73;20.88
59367;BME280;45163;47.690;11.770;2023-02-21T13:41:47;93362.25;;;24.77;21.07
59367;BME280;45163;47.690;11.770;2023-02-21T13:49:38;93350.84;;;24.56;21.80
59367;BME280;45163;47.690;11.770;2023-02-21T13:57:46;93334.13;;;24.26;21.70
59367;BME280;45163;47.690;11.770;2023-02-21T14:11:00;93327.84;;;21.85;25.81
59367;BME280;45163;47.690;11.770;2023-02-21T14:18:50;93315.66;;;20.87;27.67
59367;BME280;45163;47.690;11.770;2023-02-21T14:21:58;93319.94;;;20.82;27.94
59367;BME280;45163;47.690;11.770;2023-02-21T14:24:26;93310.84;;;19.42;28.62
59367;BME280;45163;47.690;11.770;2023-02-21T14:26:56;93301.78;;;19.41;29.23
59367;BME280;45163;47.690;11.770;2023-02-21T14:30:13;93301.75;;;18.78;29.58
59367;BME280;45163;47.690;11.770;2023-02-21T14:32:35;93304.16;;;19.23;29.73
59367;BME280;45163;47.690;11.770;2023-02-21T14:37:44;93302.22;;;18.77;29.87
59367;BME280;45163;47.690;11.770;2023-02-21T14:55:16;93281.13;;;17.92;34.08
59367;BME280;45163;47.690;11.770;2023-02-21T15:03:31;93273.75;;;17.48;34.66
59367;BME280;45163;47.690;11.770;2023-02-21T15:06:06;93276.88;;;17.06;35.50
59367;BME280;45163;47.690;11.770;2023-02-21T15:08:44;93275.06;;;16.73;36.01
59367;BME280;45163;47.690;11.770;2023-02-21T15:11:34;93271.78;;;16.60;36.18
59367;BME280;45163;47.690;11.770;2023-02-21T15:14:20;93266.34;;;16.36;37.08
59367;BME280;45163;47.690;11.770;2023-02-21T15:16:54;93260.00;;;16.44;36.97
59367;BME280;45163;47.690;11.770;2023-02-21T15:25:17;93261.47;;;16.16;37.62
59367;BME280;45163;47.690;11.770;2023-02-21T15:30:15;93254.94;;;15.89;38.74
59367;BME280;45163;47.690;11.770;2023-02-21T15:32:42;93248.44;;;15.78;39.95
59367;BME280;45163;47.690;11.770;2023-02-21T15:35:17;93247.13;;;15.40;40.51
59367;BME280;45163;47.690;11.770;2023-02-21T15:37:47;93252.13;;;15.17;41.69
59367;BME280;45163;47.690;11.770;2023-02-21T15:40:20;93250.91;;;14.76;43.60
59367;BME280;45163;47.690;11.770;2023-02-21T15:42:49;93246.81;;;14.62;44.09
59367;BME280;45163;47.690;11.770;2023-02-21T15:45:21;93249.47;;;14.02;46.62
59367;BME280;45163;47.690;11.770;2023-02-21T15:47:49;93246.84;;;13.52;50.88
59367;BME280;45163;47.690;11.770;2023-02-21T15:50:31;93243.84;;;13.19;56.02
59367;BME280;45163;47.690;11.770;2023-02-21T15:53:22;93244.38;;;12.64;58.97
59367;BME280;45163;47.690;11.770;2023-02-21T15:55:50;93248.31;;;12.54;60.43
59367;BME280;45163;47.690;11.770;2023-02-21T15:58:21;93246.34;;;12.33;64.92
59367;BME280;45163;47.690;11.770;2023-02-21T16:03:41;93244.41;;;11.77;66.10
59367;BME280;45163;47.690;11.770;2023-02-21T16:06:12;93248.09;;;11.48;67.01